createdAt,value
2023-03-17T00:02:08.247Z,10.18
2023-03-17T00:04:36.632Z,14.38
2023-03-17T00:07:06.287Z,19.20
2023-03-17T00:09:34.470Z,14.48
2023-03-17T00:12:02.715Z,14.50
2023-03-17T00:14:32.330Z,14.18
2023-03-17T00:17:00.839Z,20.10
2023-03-17T00:19:32.159Z,16.70
2023-03-17T00:22:00.938Z,27.85
2023-03-17T00:24:29.874Z,17.63
2023-03-17T00:26:58.131Z,22.25
2023-03-17T00:29:26.881Z,14.93
2023-03-17T00:31:57.965Z,18.55
2023-03-17T00:34:27.260Z,15.55
2023-03-17T00:36:56.084Z,19.77
2023-03-17T00:39:25.357Z,16.10
2023-03-17T00:41:55.793Z,15.00
2023-03-17T00:44:24.173Z,16.67
2023-03-17T00:46:52.513Z,16.52
2023-03-17T00:49:24.679Z,19.27
2023-03-17T00:51:53.370Z,20.05
2023-03-17T00:54:24.104Z,22.15
2023-03-17T00:56:53.161Z,13.00
2023-03-17T00:59:25.957Z,15.05
2023-03-17T01:01:55.309Z,22.05
2023-03-17T01:04:25.474Z,23.13
2023-03-17T01:06:54.505Z,14.85
2023-03-17T01:09:26.831Z,14.38
2023-03-17T01:11:55.722Z,17.77
2023-03-17T01:14:24.970Z,14.73
2023-03-17T01:16:55.036Z,19.55
2023-03-17T01:19:25.331Z,16.27
2023-03-17T01:21:53.531Z,12.43
2023-03-17T01:24:21.707Z,14.23
2023-03-17T01:26:50.158Z,16.33
2023-03-17T01:29:18.349Z,21.70
2023-03-17T01:31:47.627Z,16.70
2023-03-17T01:34:16.407Z,28.58
2023-03-17T01:36:46.789Z,19.02
2023-03-17T01:39:16.096Z,18.55
2023-03-17T01:41:45.571Z,15.77
2023-03-17T01:44:18.334Z,15.18
2023-03-17T01:46:47.281Z,14.50
2023-03-17T01:49:26.761Z,18.38
2023-03-17T01:52:06.061Z,13.32
2023-03-17T01:54:40.826Z,18.88
2023-03-17T01:57:13.953Z,16.75
2023-03-17T01:59:46.652Z,10.90
2023-03-17T02:02:21.200Z,14.35
2023-03-17T02:04:50.446Z,14.50
2023-03-17T02:07:20.479Z,15.30
2023-03-17T02:09:49.010Z,23.10
2023-03-17T02:12:23.450Z,19.30
2023-03-17T02:14:52.811Z,16.95
2023-03-17T02:17:22.943Z,13.93
2023-03-17T02:19:52.166Z,21.98
2023-03-17T02:22:21.975Z,16.65
2023-03-17T02:24:55.881Z,15.18
2023-03-17T02:27:29.786Z,15.20
2023-03-17T02:29:59.791Z,13.20
2023-03-17T02:32:28.312Z,10.90
2023-03-17T02:34:57.184Z,12.98
2023-03-17T02:37:26.821Z,12.15
2023-03-17T02:39:55.046Z,15.75
2023-03-17T02:42:23.365Z,14.45
2023-03-17T02:44:51.580Z,10.68
2023-03-17T02:47:20.613Z,18.60
2023-03-17T02:49:50.094Z,14.52
2023-03-17T02:52:18.256Z,22.15
2023-03-17T02:54:47.793Z,14.10
2023-03-17T02:57:15.981Z,15.90
2023-03-17T02:59:44.263Z,15.02
2023-03-17T03:02:15.406Z,16.55
2023-03-17T03:04:44.140Z,10.70
2023-03-17T03:07:12.558Z,11.63
2023-03-17T03:09:41.964Z,7.85
2023-03-17T03:12:11.877Z,15.70
2023-03-17T03:14:40.851Z,11.40
2023-03-17T03:17:10.707Z,13.20
2023-03-17T03:19:39.306Z,11.35
2023-03-17T03:22:08.365Z,10.13
2023-03-17T03:24:36.924Z,7.20
2023-03-17T03:27:05.353Z,11.63
2023-03-17T03:29:35.017Z,13.70
2023-03-17T03:32:03.222Z,15.10
2023-03-17T03:34:31.894Z,19.00
2023-03-17T03:37:00.091Z,28.15
2023-03-17T03:39:28.341Z,25.77
2023-03-17T03:41:58.184Z,16.13
2023-03-17T03:44:26.460Z,21.50
2023-03-17T03:46:56.006Z,18.27
2023-03-17T03:49:24.422Z,16.52
2023-03-17T03:51:52.589Z,14.15
2023-03-17T03:54:20.791Z,16.58
2023-03-17T03:56:48.964Z,13.40
2023-03-17T03:59:17.268Z,19.25
2023-03-17T04:01:45.642Z,18.17
2023-03-17T04:04:15.438Z,19.65
2023-03-17T04:06:43.648Z,23.15
2023-03-17T04:09:12.644Z,21.10
2023-03-17T04:11:40.847Z,17.30
2023-03-17T04:14:09.228Z,14.25
2023-03-17T04:16:37.370Z,9.23
2023-03-17T04:19:05.630Z,10.27
2023-03-17T04:21:35.223Z,13.20
2023-03-17T04:24:05.117Z,17.73
2023-03-17T04:26:33.744Z,19.88
2023-03-17T04:29:01.998Z,13.27
2023-03-17T04:31:30.690Z,12.80
2023-03-17T04:33:58.925Z,24.35
2023-03-17T04:36:27.134Z,17.30
2023-03-17T04:38:56.703Z,18.33
2023-03-17T04:41:24.991Z,54.78
2023-03-17T04:43:53.426Z,17.55
2023-03-17T04:46:21.906Z,12.80
2023-03-17T04:48:50.056Z,18.98
2023-03-17T04:51:18.673Z,17.33
2023-03-17T04:53:46.855Z,20.75
2023-03-17T04:56:16.720Z,29.65
2023-03-17T04:58:45.499Z,22.17
2023-03-17T05:01:13.712Z,28.30
2023-03-17T05:03:41.965Z,17.73
2023-03-17T05:06:10.177Z,22.77
2023-03-17T05:08:38.382Z,18.75
2023-03-17T05:11:06.965Z,13.52
2023-03-17T05:13:36.526Z,15.52
2023-03-17T05:16:04.839Z,10.75
2023-03-17T05:18:33.135Z,18.05
2023-03-17T05:21:01.552Z,15.90
2023-03-17T05:23:30.178Z,8.63
2023-03-17T05:25:58.408Z,7.32
2023-03-17T05:28:26.832Z,12.65
2023-03-17T05:30:57.636Z,13.48
2023-03-17T05:33:26.319Z,9.63
2023-03-17T05:35:54.860Z,8.27
2023-03-17T05:38:23.081Z,8.73
2023-03-17T05:40:52.873Z,10.75
2023-03-17T05:43:21.459Z,11.80
2023-03-17T05:45:50.576Z,11.27
2023-03-17T05:48:20.308Z,8.18
2023-03-17T05:50:49.844Z,13.55
2023-03-17T05:53:18.693Z,51.17
2023-03-17T05:55:46.949Z,28.25
2023-03-17T05:58:17.005Z,38.05
2023-03-17T06:00:46.173Z,33.33
2023-03-17T06:03:14.477Z,38.10
2023-03-17T06:05:44.169Z,25.00
2023-03-17T06:08:12.996Z,28.67
2023-03-17T06:10:41.274Z,15.40
2023-03-17T06:13:09.689Z,15.00
2023-03-17T06:15:38.046Z,12.00
2023-03-17T06:18:07.350Z,17.45
2023-03-17T06:20:38.150Z,24.73
2023-03-17T06:23:07.986Z,20.33
2023-03-17T06:25:37.115Z,19.25
2023-03-17T06:28:06.184Z,15.30
2023-03-17T06:30:38.097Z,14.60
2023-03-17T06:33:08.205Z,17.15
2023-03-17T06:35:36.493Z,21.38
2023-03-17T06:38:05.036Z,19.42
2023-03-17T06:40:34.980Z,17.42
2023-03-17T06:43:03.422Z,17.80
2023-03-17T06:45:35.792Z,16.92
2023-03-17T06:48:04.085Z,17.88
2023-03-17T06:50:32.422Z,19.30
2023-03-17T06:53:00.981Z,18.63
2023-03-17T06:55:29.565Z,21.35
2023-03-17T06:58:00.437Z,20.17
2023-03-17T07:00:30.235Z,20.38
2023-03-17T07:02:58.772Z,18.33
2023-03-17T07:05:27.931Z,19.80
2023-03-17T07:07:56.527Z,15.48
2023-03-17T07:10:24.771Z,12.27
2023-03-17T07:12:53.166Z,18.05
2023-03-17T07:15:22.692Z,18.52
2023-03-17T07:17:55.798Z,18.15
2023-03-17T07:20:24.317Z,20.20
2023-03-17T07:22:52.861Z,14.50
2023-03-17T07:25:21.077Z,15.43
2023-03-17T07:27:49.485Z,14.20
2023-03-17T07:30:19.085Z,12.77
2023-03-17T07:32:49.215Z,11.68
2023-03-17T07:35:17.840Z,10.93
2023-03-17T07:37:47.320Z,18.02
2023-03-17T07:40:17.776Z,13.30
2023-03-17T07:42:46.280Z,12.20
2023-03-17T07:45:14.628Z,15.15
2023-03-17T07:47:42.828Z,9.35
2023-03-17T07:50:13.289Z,9.60
2023-03-17T07:52:42.138Z,11.77
2023-03-17T07:55:13.732Z,16.20
2023-03-17T07:57:42.370Z,12.88
2023-03-17T08:00:13.627Z,9.85
2023-03-17T08:02:42.180Z,11.20
2023-03-17T08:05:13.326Z,13.88
2023-03-17T08:07:41.622Z,10.85
2023-03-17T08:10:11.653Z,13.20
2023-03-17T08:12:40.625Z,14.30
2023-03-17T08:15:12.326Z,16.30
2023-03-17T08:17:41.244Z,13.15
2023-03-17T08:20:11.551Z,12.80
2023-03-17T08:22:41.478Z,11.52
2023-03-17T08:25:12.875Z,12.88
2023-03-17T08:27:41.952Z,13.80
2023-03-17T08:30:13.673Z,14.27
2023-03-17T08:32:42.182Z,13.32
2023-03-17T08:35:15.069Z,16.33
2023-03-17T08:37:45.294Z,12.68
2023-03-17T08:40:17.451Z,12.35
2023-03-17T08:42:46.407Z,13.52
2023-03-17T08:45:18.245Z,12.93
2023-03-17T08:47:47.604Z,10.82
2023-03-17T08:50:19.335Z,12.98
2023-03-17T08:52:49.679Z,14.30
2023-03-17T08:55:18.713Z,11.05
2023-03-17T08:57:47.350Z,14.07
2023-03-17T09:00:20.264Z,20.38
2023-03-17T09:02:49.376Z,15.40
2023-03-17T09:05:18.548Z,16.80
2023-03-17T09:07:50.473Z,13.35
2023-03-17T09:10:22.539Z,16.23
2023-03-17T09:12:51.632Z,14.63
2023-03-17T09:15:21.194Z,12.98
2023-03-17T09:17:49.396Z,16.48
2023-03-17T09:20:18.553Z,16.60
2023-03-17T09:22:49.062Z,14.60
2023-03-17T09:25:17.812Z,13.85
2023-03-17T09:27:46.306Z,10.70
2023-03-17T09:30:15.137Z,14.18
2023-03-17T09:32:44.858Z,11.15
2023-03-17T09:35:16.059Z,8.70
2023-03-17T09:37:44.269Z,9.07
2023-03-17T09:40:17.572Z,11.20
2023-03-17T09:42:58.147Z,14.55
2023-03-17T09:45:33.261Z,12.85
2023-03-17T09:48:23.679Z,13.63
2023-03-17T09:50:56.723Z,9.70
2023-03-17T09:53:34.009Z,7.07
2023-03-17T09:56:10.023Z,10.38
2023-03-17T09:58:40.442Z,9.23
2023-03-17T10:01:12.726Z,8.57
2023-03-17T10:03:41.105Z,9.85
2023-03-17T10:06:28.133Z,14.43
2023-03-17T10:09:02.385Z,8.48
2023-03-17T10:11:40.388Z,4.45
2023-03-17T10:14:21.439Z,4.75
2023-03-17T10:16:56.198Z,7.25
2023-03-17T10:19:29.302Z,6.45
2023-03-17T10:22:02.108Z,8.02
2023-03-17T10:24:33.862Z,5.93
2023-03-17T10:27:06.447Z,6.75
2023-03-17T10:29:36.079Z,5.75
2023-03-17T10:32:04.536Z,6.00
2023-03-17T10:34:37.991Z,8.70
2023-03-17T10:37:08.882Z,9.05
2023-03-17T10:39:46.131Z,8.20
2023-03-17T10:42:24.457Z,6.57
2023-03-17T10:44:56.248Z,11.25
2023-03-17T10:47:30.296Z,7.45
2023-03-17T10:50:00.293Z,12.13
2023-03-17T10:52:31.023Z,6.22
2023-03-17T10:55:03.659Z,10.57
2023-03-17T10:57:34.142Z,8.10
2023-03-17T11:00:05.378Z,9.43
2023-03-17T11:02:44.249Z,7.35
2023-03-17T11:05:23.034Z,7.65
2023-03-17T11:07:51.815Z,6.72
2023-03-17T11:10:23.806Z,8.93
2023-03-17T11:13:01.872Z,8.13
2023-03-17T11:15:34.790Z,5.53
2023-03-17T11:18:06.273Z,6.78
2023-03-17T11:20:47.738Z,5.90
2023-03-17T11:23:39.663Z,6.72
2023-03-17T11:26:17.575Z,6.78
2023-03-17T11:28:51.593Z,7.28
2023-03-17T11:31:31.014Z,5.10
2023-03-17T11:34:08.677Z,5.82
2023-03-17T11:36:50.408Z,6.38
2023-03-17T11:39:26.068Z,5.38
2023-03-17T11:42:07.295Z,5.88
2023-03-17T11:45:15.589Z,8.32
2023-03-17T11:48:00.014Z,6.55
2023-03-17T11:50:32.012Z,4.75
2023-03-17T11:53:15.114Z,3.78
2023-03-17T11:55:46.962Z,5.53
2023-03-17T11:58:30.353Z,5.82
2023-03-17T12:01:02.191Z,5.53
2023-03-17T12:03:41.901Z,9.15
2023-03-17T12:06:16.443Z,6.05
2023-03-17T12:08:50.003Z,7.20
2023-03-17T12:11:24.125Z,6.05
2023-03-17T12:13:59.484Z,7.90
2023-03-17T12:16:33.206Z,6.43
2023-03-17T12:19:10.223Z,8.15
2023-03-17T12:21:46.551Z,5.55
2023-03-17T12:24:20.073Z,8.02
2023-03-17T12:26:55.850Z,4.88
2023-03-17T12:29:33.884Z,10.45
2023-03-17T12:32:08.319Z,4.68
2023-03-17T12:34:44.657Z,4.78
2023-03-17T12:37:14.240Z,8.07
2023-03-17T12:39:50.200Z,5.45
2023-03-17T12:42:30.741Z,8.50
2023-03-17T12:45:32.466Z,4.25
2023-03-17T12:48:37.065Z,4.60
2023-03-17T12:51:41.044Z,5.00
2023-03-17T12:54:16.362Z,6.22
2023-03-17T12:56:47.577Z,7.22
2023-03-17T12:59:19.338Z,10.10
2023-03-17T13:01:57.319Z,8.70
2023-03-17T13:04:29.806Z,6.40
2023-03-17T13:07:09.404Z,5.55
2023-03-17T13:09:47.935Z,6.88
2023-03-17T13:12:52.478Z,5.88
2023-03-17T13:15:55.281Z,8.18
2023-03-17T13:18:43.301Z,3.20
2023-03-17T13:21:16.142Z,7.28
2023-03-17T13:23:46.536Z,4.53
2023-03-17T13:26:18.999Z,4.05
2023-03-17T13:28:49.209Z,3.75
2023-03-17T13:31:38.223Z,6.03
2023-03-17T13:34:24.129Z,4.25
2023-03-17T13:37:02.575Z,4.15
2023-03-17T13:40:14.087Z,6.70
2023-03-17T13:43:09.423Z,4.93
2023-03-17T13:45:39.939Z,4.57
2023-03-17T13:48:32.093Z,7.90
2023-03-17T13:51:04.266Z,5.45
2023-03-17T13:53:38.852Z,5.40
2023-03-17T13:56:17.412Z,5.70
2023-03-17T13:59:14.360Z,5.30
2023-03-17T14:01:46.956Z,5.65
2023-03-17T14:04:21.590Z,6.28
2023-03-17T14:06:53.090Z,6.57
2023-03-17T14:09:33.943Z,4.82
2023-03-17T14:12:07.090Z,7.13
2023-03-17T14:14:45.261Z,5.97
2023-03-17T14:17:16.395Z,6.88
2023-03-17T14:20:06.316Z,8.88
2023-03-17T14:22:40.692Z,7.90
2023-03-17T14:25:17.663Z,5.72
2023-03-17T14:27:47.208Z,3.42
2023-03-17T14:30:22.294Z,8.02
2023-03-17T14:32:56.431Z,5.63
2023-03-17T14:35:25.493Z,7.80
2023-03-17T14:37:53.693Z,8.30
2023-03-17T14:40:26.096Z,4.38
2023-03-17T14:42:54.394Z,19.17
2023-03-17T14:45:29.635Z,6.40
2023-03-17T14:47:58.039Z,9.25
2023-03-17T14:50:29.933Z,3.95
2023-03-17T14:52:59.654Z,6.32
2023-03-17T14:55:38.111Z,4.78
2023-03-17T14:58:11.073Z,5.28
2023-03-17T15:00:45.916Z,5.40
2023-03-17T15:03:20.277Z,4.18
2023-03-17T15:05:49.232Z,5.30
2023-03-17T15:08:46.924Z,4.60
2023-03-17T15:11:23.430Z,4.75
2023-03-17T15:13:56.914Z,6.15
2023-03-17T15:16:29.385Z,6.22
2023-03-17T15:19:09.645Z,5.03
2023-03-17T15:21:41.736Z,6.20
2023-03-17T15:24:39.164Z,8.70
2023-03-17T15:27:15.804Z,12.18
2023-03-17T15:29:44.474Z,5.75
2023-03-17T15:32:15.208Z,8.38
2023-03-17T15:34:43.550Z,4.88
2023-03-17T15:37:22.767Z,10.60
2023-03-17T15:39:55.682Z,6.78
2023-03-17T15:42:28.222Z,6.97
2023-03-17T15:44:56.390Z,3.88
2023-03-17T15:47:28.477Z,3.50
2023-03-17T15:50:01.181Z,5.93
2023-03-17T15:52:30.286Z,9.73
2023-03-17T15:55:00.574Z,22.40
2023-03-17T15:57:33.128Z,17.85
2023-03-17T16:00:01.312Z,11.88
2023-03-17T16:02:32.025Z,7.95
2023-03-17T16:05:03.097Z,6.53
2023-03-17T16:07:32.549Z,11.40
2023-03-17T16:10:02.632Z,16.75
2023-03-17T16:12:32.174Z,11.93
2023-03-17T16:15:01.941Z,11.48
2023-03-17T16:17:32.324Z,10.75
2023-03-17T16:20:01.049Z,9.00
2023-03-17T16:22:39.308Z,9.90
2023-03-17T16:25:19.975Z,8.30
2023-03-17T16:27:51.427Z,7.30
2023-03-17T16:30:21.398Z,6.10
2023-03-17T16:32:50.590Z,7.80
2023-03-17T16:35:20.519Z,11.38
2023-03-17T16:37:52.289Z,23.80
2023-03-17T16:40:23.634Z,16.88
2023-03-17T16:42:54.342Z,7.47
2023-03-17T16:45:28.540Z,13.90
2023-03-17T16:47:57.703Z,19.55
2023-03-17T16:50:27.913Z,13.77
2023-03-17T16:52:56.225Z,10.20
2023-03-17T16:55:27.036Z,9.50
2023-03-17T16:57:58.813Z,7.38
2023-03-17T17:00:29.936Z,7.38
2023-03-17T17:02:58.980Z,7.20
2023-03-17T17:05:29.584Z,10.32
2023-03-17T17:07:58.588Z,11.25
2023-03-17T17:10:28.639Z,12.05
2023-03-17T17:12:58.257Z,7.30
2023-03-17T17:15:26.746Z,6.55
2023-03-17T17:17:57.743Z,7.72
2023-03-17T17:20:30.760Z,7.57
2023-03-17T17:22:59.997Z,5.47
2023-03-17T17:25:29.385Z,10.80
2023-03-17T17:27:59.930Z,6.97
2023-03-17T17:30:32.792Z,8.18
2023-03-17T17:33:02.542Z,8.52
2023-03-17T17:35:33.344Z,8.95
2023-03-17T17:38:02.509Z,6.32
2023-03-17T17:40:33.838Z,8.45
2023-03-17T17:43:03.795Z,8.35
2023-03-17T17:45:32.645Z,9.77
2023-03-17T17:48:00.814Z,13.38
2023-03-17T17:50:31.269Z,11.30
2023-03-17T17:53:05.147Z,10.25
2023-03-17T17:55:36.818Z,9.45
2023-03-17T17:58:06.883Z,8.85
2023-03-17T18:00:38.379Z,9.43
2023-03-17T18:03:06.613Z,10.10
2023-03-17T18:05:35.052Z,13.45
2023-03-17T18:08:03.588Z,11.15
2023-03-17T18:10:32.506Z,11.38
2023-03-17T18:13:00.896Z,10.75
2023-03-17T18:15:33.079Z,9.73
2023-03-17T18:18:01.383Z,10.07
2023-03-17T18:20:30.393Z,13.10
2023-03-17T18:22:58.960Z,15.07
2023-03-17T18:25:27.534Z,8.38
2023-03-17T18:28:00.869Z,17.23
2023-03-17T18:30:35.535Z,9.35
2023-03-17T18:33:07.558Z,12.15
2023-03-17T18:35:36.623Z,11.48
2023-03-17T18:38:05.194Z,12.15
2023-03-17T18:40:34.030Z,8.20
2023-03-17T18:43:02.896Z,12.05
2023-03-17T18:45:32.609Z,14.63
2023-03-17T18:48:00.937Z,12.70
2023-03-17T18:50:29.126Z,14.45
2023-03-17T18:52:57.310Z,14.98
2023-03-17T18:55:25.820Z,15.27
2023-03-17T18:57:54.861Z,30.48
2023-03-17T19:00:25.248Z,23.35
2023-03-17T19:02:57.617Z,16.77
2023-03-17T19:05:26.304Z,27.05
2023-03-17T19:07:57.087Z,29.88
2023-03-17T19:10:25.921Z,34.72
2023-03-17T19:12:54.800Z,34.65
2023-03-17T19:15:23.017Z,19.73
2023-03-17T19:17:52.254Z,39.90
2023-03-17T19:20:22.053Z,33.95
2023-03-17T19:22:53.192Z,30.23
2023-03-17T19:25:23.742Z,41.03
2023-03-17T19:27:51.918Z,37.05
2023-03-17T19:30:20.245Z,25.70
2023-03-17T19:32:48.440Z,18.38
2023-03-17T19:35:16.724Z,14.20
2023-03-17T19:37:46.259Z,14.45
2023-03-17T19:40:14.966Z,16.10
2023-03-17T19:42:43.274Z,20.35
2023-03-17T19:45:11.899Z,13.85
2023-03-17T19:47:40.695Z,15.70
2023-03-17T19:50:11.049Z,14.93
2023-03-17T19:52:39.249Z,10.35
2023-03-17T19:55:10.629Z,13.90
2023-03-17T19:57:39.082Z,11.20
2023-03-17T20:00:11.763Z,9.10
2023-03-17T20:02:40.325Z,10.20
2023-03-17T20:05:10.803Z,14.38
2023-03-17T20:07:39.118Z,11.18
2023-03-17T20:10:10.992Z,11.98
2023-03-17T20:12:39.397Z,11.63
2023-03-17T20:15:12.342Z,14.25
2023-03-17T20:17:41.077Z,17.13
2023-03-17T20:20:10.780Z,14.27
2023-03-17T20:22:40.265Z,11.30
2023-03-17T20:25:11.101Z,13.30
2023-03-17T20:27:40.188Z,13.18
2023-03-17T20:30:12.080Z,11.45
2023-03-17T20:32:40.566Z,8.13
2023-03-17T20:35:11.941Z,10.32
2023-03-17T20:37:40.159Z,13.55
2023-03-17T20:40:11.164Z,10.27
2023-03-17T20:42:39.322Z,12.32
2023-03-17T20:45:08.752Z,9.65
2023-03-17T20:47:37.498Z,8.50
2023-03-17T20:50:08.511Z,15.77
2023-03-17T20:52:41.895Z,12.05
2023-03-17T20:55:14.080Z,15.55
2023-03-17T20:57:43.089Z,15.27
2023-03-17T21:00:16.271Z,12.65
2023-03-17T21:02:45.066Z,12.95
2023-03-17T21:05:17.949Z,11.90
2023-03-17T21:07:46.624Z,10.63
2023-03-17T21:10:16.748Z,12.52
2023-03-17T21:12:45.271Z,11.23
2023-03-17T21:15:15.994Z,13.63
2023-03-17T21:17:44.256Z,14.57
2023-03-17T21:20:16.580Z,12.85
2023-03-17T21:22:46.035Z,20.23
2023-03-17T21:25:15.817Z,20.30
2023-03-17T21:27:44.011Z,18.50
2023-03-17T21:30:14.408Z,14.38
2023-03-17T21:32:43.393Z,7.80
2023-03-17T21:35:11.815Z,13.77
2023-03-17T21:37:40.048Z,11.45
2023-03-17T21:40:09.551Z,13.68
2023-03-17T21:42:39.455Z,21.42
2023-03-17T21:45:08.300Z,19.05
2023-03-17T21:47:40.851Z,20.50
2023-03-17T21:50:10.158Z,24.10
2023-03-17T21:52:38.737Z,19.90
2023-03-17T21:55:09.342Z,25.40
2023-03-17T21:57:39.336Z,16.33
2023-03-17T22:00:10.880Z,17.08
2023-03-17T22:02:42.748Z,21.77
2023-03-17T22:05:11.541Z,16.20
2023-03-17T22:07:41.164Z,16.42
2023-03-17T22:10:11.367Z,16.65
2023-03-17T22:12:40.959Z,33.60
2023-03-17T22:15:10.482Z,24.45
2023-03-17T22:17:39.651Z,19.98
2023-03-17T22:20:09.012Z,18.77
2023-03-17T22:22:37.246Z,15.43
2023-03-17T22:25:06.267Z,22.92
2023-03-17T22:27:34.640Z,13.55
2023-03-17T22:30:04.573Z,17.52
2023-03-17T22:32:34.957Z,14.40
2023-03-17T22:35:04.352Z,13.43
2023-03-17T22:37:32.753Z,17.05
2023-03-17T22:40:03.958Z,17.08
2023-03-17T22:42:32.475Z,11.63
2023-03-17T22:45:05.383Z,11.07
2023-03-17T22:47:34.607Z,11.38
2023-03-17T22:50:02.794Z,11.45
2023-03-17T22:52:36.613Z,11.88
2023-03-17T22:55:05.600Z,15.15
2023-03-17T22:57:33.967Z,12.40
2023-03-17T23:00:02.175Z,9.55
2023-03-17T23:02:31.775Z,11.65
2023-03-17T23:04:59.981Z,7.22
2023-03-17T23:07:29.207Z,9.05
2023-03-17T23:09:58.600Z,12.63
2023-03-17T23:12:28.193Z,14.00
2023-03-17T23:14:57.196Z,10.48
2023-03-17T23:17:26.533Z,11.93
2023-03-17T23:19:56.377Z,11.35
2023-03-17T23:22:24.876Z,10.38
2023-03-17T23:24:53.608Z,8.80
2023-03-17T23:27:21.757Z,12.90
2023-03-17T23:29:50.064Z,11.75
2023-03-17T23:32:18.239Z,15.93
2023-03-17T23:34:46.874Z,11.00
2023-03-17T23:37:19.508Z,10.10
2023-03-17T23:39:51.198Z,8.55
2023-03-17T23:42:19.425Z,13.38
2023-03-17T23:44:47.921Z,9.02
2023-03-17T23:47:16.845Z,12.40
2023-03-17T23:49:45.213Z,8.02
2023-03-17T23:52:13.952Z,8.48
2023-03-17T23:54:44.016Z,13.18
2023-03-17T23:57:12.633Z,11.85
2023-03-17T23:59:41.386Z,8.40
